Time;durP1;ratioP1;P1;durP2;ratioP2;P2;SDS_P1;SDS_P2;PMS_P1;PMS_P2;Temp;Humidity;BMP_temperature;BMP_pressure;BME280_temperature;BME280_humidity;BME280_pressure;Samples;Min_cycle;Max_cycle;Signal;HPM_P1;HPM_P2
2023/08/15 00:01:40;;;;;;;0.20;0.20;;;21.10;99.90;;;;;;4399914;32;20125;-75
2023/08/15 00:04:05;;;;;;;0.30;0.30;;;21.20;99.90;;;;;;4399869;32;20082;-75
2023/08/15 00:06:31;;;;;;;0.30;0.30;;;21.20;99.90;;;;;;4399582;32;20079;-75
2023/08/15 00:08:57;;;;;;;1.08;0.62;;;21.10;99.90;;;;;;4399518;32;20078;-75
2023/08/15 00:11:23;;;;;;;0.30;0.30;;;21.20;99.90;;;;;;4399419;32;20347;-75
2023/08/15 00:13:49;;;;;;;0.50;0.50;;;21.20;99.90;;;;;;4399601;32;20082;-75
2023/08/15 00:16:15;;;;;;;0.20;0.20;;;21.20;99.90;;;;;;4399499;32;20091;-75
2023/08/15 00:18:41;;;;;;;0.80;0.50;;;21.30;99.90;;;;;;4399540;32;20464;-74
2023/08/15 00:21:06;;;;;;;0.30;0.30;;;21.30;99.90;;;;;;4399690;32;20082;-75
2023/08/15 00:23:32;;;;;;;0.52;0.50;;;21.30;99.90;;;;;;4399835;32;20057;-75
2023/08/15 00:25:57;;;;;;;0.50;0.50;;;21.20;99.90;;;;;;4400505;32;20082;-75
2023/08/15 00:28:22;;;;;;;0.20;0.20;;;21.20;99.90;;;;;;4399676;32;20085;-75
2023/08/15 00:30:49;;;;;;;0.30;0.30;;;21.10;99.90;;;;;;4401586;32;20573;-75
2023/08/15 00:33:14;;;;;;;0.10;0.10;;;21.10;99.90;;;;;;4399702;32;20121;-75
2023/08/15 00:35:42;;;;;;;0.25;0.25;;;21.00;99.90;;;;;;4399774;32;20077;-75
2023/08/15 00:38:08;;;;;;;0.20;0.20;;;21.00;99.90;;;;;;4399193;32;20070;-75
2023/08/15 00:40:33;;;;;;;0.10;0.10;;;21.00;99.90;;;;;;4399714;32;20062;-75
2023/08/15 00:42:59;;;;;;;0.20;0.20;;;21.00;99.90;;;;;;4399266;32;20078;-75
2023/08/15 00:45:25;;;;;;;0.50;0.50;;;21.10;99.90;;;;;;4400695;32;20514;-75
2023/08/15 00:47:50;;;;;;;0.50;0.50;;;21.20;99.90;;;;;;4384864;32;20110;-75
2023/08/15 00:50:16;;;;;;;0.30;0.30;;;21.10;99.90;;;;;;4383825;32;20078;-75
2023/08/15 00:52:42;;;;;;;7.68;0.47;;;21.10;99.90;;;;;;4383558;32;20066;-75
2023/08/15 00:55:09;;;;;;;0.20;0.20;;;21.00;99.90;;;;;;4384058;32;20071;-75
2023/08/15 00:57:35;;;;;;;0.28;0.28;;;20.90;99.90;;;;;;4395701;32;20062;-75
2023/08/15 01:00:01;;;;;;;0.20;0.20;;;20.80;99.90;;;;;;4398811;32;20087;-75
2023/08/15 01:02:26;;;;;;;0.25;0.25;;;20.80;99.90;;;;;;4398788;32;20494;-75
2023/08/15 01:04:51;;;;;;;0.30;0.30;;;20.70;99.90;;;;;;4398592;32;20125;-74
2023/08/15 01:07:17;;;;;;;1.00;0.40;;;20.70;99.90;;;;;;4398802;32;20070;-74
2023/08/15 01:09:44;;;;;;;0.30;0.30;;;20.80;99.90;;;;;;4398715;32;20066;-75
2023/08/15 01:12:20;;;;;;;0.13;0.13;;;20.80;99.90;;;;;;4398473;32;20132;-75
2023/08/15 01:14:52;;;;;;;0.40;0.37;;;20.80;99.90;;;;;;4398474;32;20096;-75
2023/08/15 01:17:25;;;;;;;2.03;0.68;;;20.70;99.90;;;;;;4398131;32;20174;-75
2023/08/15 01:19:54;;;;;;;0.35;0.35;;;20.70;99.90;;;;;;4398290;32;20070;-75
2023/08/15 01:22:22;;;;;;;0.20;0.20;;;20.60;99.90;;;;;;4398320;32;20059;-75
2023/08/15 01:24:48;;;;;;;0.25;0.25;;;20.70;99.90;;;;;;4398406;32;20514;-75
2023/08/15 01:27:14;;;;;;;0.35;0.35;;;20.70;99.90;;;;;;4397458;32;20117;-75
2023/08/15 01:29:39;;;;;;;0.30;0.30;;;20.60;99.90;;;;;;4399403;32;20424;-75
2023/08/15 01:32:16;;;;;;;0.20;0.20;;;20.60;99.90;;;;;;4398414;32;20246;-75
2023/08/15 01:34:50;;;;;;;0.77;0.43;;;20.70;99.90;;;;;;4398166;32;20062;-75
2023/08/15 01:37:25;;;;;;;0.50;0.50;;;20.70;99.90;;;;;;4398442;32;20129;-75
2023/08/15 01:39:52;;;;;;;0.35;0.28;;;20.60;99.90;;;;;;4397982;32;20121;-75
2023/08/15 01:42:20;;;;;;;0.45;0.45;;;20.60;99.90;;;;;;4397989;32;20061;-75
2023/08/15 01:44:46;;;;;;;0.90;0.75;;;20.60;99.90;;;;;;4398161;32;20419;-75
2023/08/15 01:47:12;;;;;;;2.62;0.77;;;20.60;99.90;;;;;;4397877;32;20081;-75
2023/08/15 01:49:37;;;;;;;0.20;0.20;;;20.60;99.90;;;;;;4398726;32;20506;-75
2023/08/15 01:52:03;;;;;;;0.50;0.50;;;20.50;99.90;;;;;;4398120;32;20117;-75
2023/08/15 01:54:29;;;;;;;1.95;0.88;;;20.50;99.90;;;;;;4396518;32;20415;-75
2023/08/15 01:56:54;;;;;;;0.43;0.43;;;20.50;99.90;;;;;;4396910;32;20073;-75
2023/08/15 01:59:20;;;;;;;0.22;0.22;;;20.50;99.90;;;;;;4397091;32;20089;-75
2023/08/15 02:01:45;;;;;;;0.28;0.28;;;20.60;99.90;;;;;;4397459;32;20074;-75
2023/08/15 02:04:11;;;;;;;0.20;0.20;;;20.50;99.90;;;;;;4397365;32;20086;-75
2023/08/15 02:06:36;;;;;;;0.20;0.20;;;20.50;99.90;;;;;;4397772;32;20065;-75
2023/08/15 02:09:01;;;;;;;4.22;0.82;;;20.50;99.90;;;;;;4397250;32;20475;-75
2023/08/15 02:11:27;;;;;;;0.20;0.20;;;20.50;99.90;;;;;;4397148;32;20078;-75
2023/08/15 02:13:54;;;;;;;0.20;0.20;;;20.50;99.90;;;;;;4396956;32;20086;-75
2023/08/15 02:16:19;;;;;;;0.30;0.30;;;20.50;99.90;;;;;;4398341;32;20113;-75
2023/08/15 02:18:45;;;;;;;0.20;0.20;;;20.50;99.90;;;;;;4397135;32;20121;-74
2023/08/15 02:21:10;;;;;;;2.55;0.73;;;20.50;99.90;;;;;;4397037;32;20469;-75
2023/08/15 02:23:36;;;;;;;0.30;0.30;;;20.40;99.90;;;;;;4397768;32;20079;-75
2023/08/15 02:26:01;;;;;;;0.40;0.40;;;20.40;99.90;;;;;;4397215;32;20069;-75
2023/08/15 02:28:26;;;;;;;0.40;0.40;;;20.30;99.90;;;;;;4396883;32;20131;-75
2023/08/15 02:30:53;;;;;;;0.20;0.20;;;20.30;99.90;;;;;;4396569;32;20121;-75
2023/08/15 02:33:18;;;;;;;0.75;0.28;;;20.30;99.90;;;;;;4396895;32;20535;-75
2023/08/15 02:35:44;;;;;;;0.20;0.20;;;20.30;99.90;;;;;;4397041;32;20113;-75
2023/08/15 02:38:10;;;;;;;0.30;0.30;;;20.30;99.90;;;;;;4397680;32;20070;-75
2023/08/15 02:40:35;;;;;;;2.45;0.88;;;20.30;99.90;;;;;;4397171;32;20078;-75
2023/08/15 02:43:01;;;;;;;0.50;0.50;;;20.30;99.90;;;;;;4397472;32;20074;-75
2023/08/15 02:45:26;;;;;;;0.28;0.28;;;20.20;99.90;;;;;;4397571;32;20506;-74
2023/08/15 02:47:52;;;;;;;0.40;0.40;;;20.20;99.90;;;;;;4397130;32;20063;-75
2023/08/15 02:50:17;;;;;;;0.20;0.20;;;20.20;99.90;;;;;;4397505;32;20070;-75
2023/08/15 02:52:43;;;;;;;0.20;0.20;;;20.20;99.90;;;;;;4397663;32;20142;-75
2023/08/15 02:55:08;;;;;;;0.40;0.40;;;20.30;99.90;;;;;;4398349;32;20077;-75
2023/08/15 02:57:34;;;;;;;0.30;0.30;;;20.20;99.90;;;;;;4397827;32;20058;-75
2023/08/15 02:59:59;;;;;;;0.20;0.20;;;20.20;99.90;;;;;;4397402;32;20121;-75
2023/08/15 03:02:25;;;;;;;0.20;0.20;;;20.20;99.90;;;;;;4397039;32;20079;-75
2023/08/15 03:04:51;;;;;;;1.75;1.00;;;20.20;99.90;;;;;;4397986;32;20514;-75
2023/08/15 03:07:16;;;;;;;0.45;0.40;;;20.10;99.90;;;;;;4398656;32;20117;-75
2023/08/15 03:09:42;;;;;;;2.33;1.10;;;20.10;99.90;;;;;;4398376;32;20090;-75
2023/08/15 03:12:07;;;;;;;0.20;0.20;;;20.00;99.90;;;;;;4397098;32;20063;-74
2023/08/15 03:14:33;;;;;;;0.20;0.20;;;20.00;99.90;;;;;;4397252;32;20074;-75
2023/08/15 03:16:59;;;;;;;0.30;0.30;;;20.10;99.90;;;;;;4397355;32;20067;-75
2023/08/15 03:19:24;;;;;;;0.65;0.47;;;20.10;99.90;;;;;;4398404;32;20124;-75
2023/08/15 03:21:50;;;;;;;0.32;0.32;;;20.00;99.90;;;;;;4399972;32;20129;-75
2023/08/15 03:24:15;;;;;;;0.17;0.17;;;20.00;99.90;;;;;;4399762;32;20113;-75
2023/08/15 03:26:42;;;;;;;0.25;0.25;;;20.00;99.90;;;;;;4399809;32;20066;-75
2023/08/15 03:29:08;;;;;;;1.10;0.32;;;20.00;99.90;;;;;;4399700;32;20132;-75
2023/08/15 03:31:33;;;;;;;0.77;0.50;;;19.90;99.90;;;;;;4399887;32;20082;-75
2023/08/15 03:33:59;;;;;;;0.73;0.45;;;19.90;99.90;;;;;;4399465;32;20062;-75
2023/08/15 03:36:24;;;;;;;0.40;0.40;;;19.80;99.90;;;;;;4399701;32;20459;-75
2023/08/15 03:38:50;;;;;;;0.20;0.20;;;19.70;99.90;;;;;;4399886;32;20078;-75
2023/08/15 03:41:15;;;;;;;1.52;0.98;;;19.70;99.90;;;;;;4399800;32;20082;-76
2023/08/15 03:43:41;;;;;;;0.28;0.28;;;19.70;99.90;;;;;;4400161;32;20066;-75
2023/08/15 03:46:06;;;;;;;0.30;0.30;;;19.70;99.90;;;;;;4399809;32;20082;-75
2023/08/15 03:48:32;;;;;;;1.45;0.55;;;19.70;99.90;;;;;;4400399;32;20079;-75
2023/08/15 03:51:00;;;;;;;0.30;0.30;;;19.70;99.90;;;;;;4399559;32;20066;-75
2023/08/15 03:53:26;;;;;;;7.10;2.40;;;19.70;99.90;;;;;;4399790;32;20116;-75
2023/08/15 03:55:52;;;;;;;1.65;1.45;;;19.70;99.90;;;;;;4400340;32;20083;-75
2023/08/15 03:58:19;;;;;;;3.67;1.95;;;19.70;99.90;;;;;;4400354;32;20065;-75
2023/08/15 04:00:46;;;;;;;1.65;1.25;;;19.70;99.90;;;;;;4398894;32;20094;-75
2023/08/15 04:03:11;;;;;;;0.43;0.43;;;19.70;99.90;;;;;;4399433;32;20624;-75
2023/08/15 04:05:37;;;;;;;9.65;1.50;;;19.70;99.90;;;;;;4400375;32;20082;-75
2023/08/15 04:08:02;;;;;;;0.60;0.45;;;19.70;99.90;;;;;;4400115;32;20063;-75
2023/08/15 04:10:28;;;;;;;0.90;0.62;;;19.70;99.90;;;;;;4399777;32;20078;-75
2023/08/15 04:12:54;;;;;;;0.40;0.40;;;19.70;99.90;;;;;;4399241;32;20066;-75
2023/08/15 04:15:20;;;;;;;0.70;0.70;;;19.80;99.90;;;;;;4399327;32;20129;-75
2023/08/15 04:17:45;;;;;;;1.65;0.90;;;19.80;99.90;;;;;;4399316;32;20061;-75
2023/08/15 04:20:12;;;;;;;0.70;0.60;;;19.90;99.90;;;;;;4399055;32;20418;-76
2023/08/15 04:22:38;;;;;;;0.65;0.65;;;19.90;99.90;;;;;;4398783;32;20054;-74
2023/08/15 04:25:07;;;;;;;0.57;0.57;;;19.80;99.90;;;;;;4400017;32;20087;-75
2023/08/15 04:27:32;;;;;;;0.70;0.70;;;19.90;99.90;;;;;;4398703;32;20066;-75
2023/08/15 04:29:58;;;;;;;0.85;0.50;;;19.90;99.90;;;;;;4398700;32;20079;-75
2023/08/15 04:32:23;;;;;;;0.40;0.40;;;19.80;99.90;;;;;;4398551;32;20424;-75
2023/08/15 04:34:49;;;;;;;0.30;0.30;;;19.70;99.90;;;;;;4399836;32;20279;-75
2023/08/15 04:37:14;;;;;;;2.15;1.60;;;19.70;99.90;;;;;;4395490;32;20496;-75
2023/08/15 04:39:40;;;;;;;0.43;0.43;;;19.80;99.90;;;;;;4397194;32;20534;-75
2023/08/15 04:42:05;;;;;;;2.12;1.23;;;19.70;99.90;;;;;;4399001;32;20078;-75
2023/08/15 04:44:31;;;;;;;2.30;0.60;;;19.70;99.90;;;;;;4398658;32;20083;-75
2023/08/15 04:46:56;;;;;;;1.02;0.77;;;19.80;99.90;;;;;;4399147;32;20568;-75
2023/08/15 04:49:22;;;;;;;0.85;0.70;;;19.80;99.90;;;;;;4398130;32;20140;-75
2023/08/15 04:51:47;;;;;;;1.37;0.70;;;19.80;99.90;;;;;;4398057;32;20078;-75
2023/08/15 04:54:13;;;;;;;0.20;0.20;;;19.80;99.90;;;;;;4399571;32;20193;-75
2023/08/15 04:56:38;;;;;;;0.30;0.30;;;19.80;99.90;;;;;;4400103;32;20114;-75
2023/08/15 04:59:04;;;;;;;0.47;0.47;;;19.90;99.90;;;;;;4398841;32;20452;-75
2023/08/15 05:01:29;;;;;;;0.40;0.40;;;19.90;99.90;;;;;;4390778;32;20082;-75
2023/08/15 05:03:55;;;;;;;2.10;0.50;;;19.90;99.90;;;;;;4384761;32;20079;-75
2023/08/15 05:06:20;;;;;;;0.40;0.40;;;19.90;99.90;;;;;;4398362;32;20129;-75
2023/08/15 05:08:46;;;;;;;0.30;0.30;;;19.90;99.90;;;;;;4398057;32;20133;-75
2023/08/15 05:11:11;;;;;;;0.73;0.70;;;19.90;99.90;;;;;;4398465;32;20061;-75
2023/08/15 05:13:37;;;;;;;0.40;0.40;;;19.90;99.90;;;;;;4398782;32;20074;-75
2023/08/15 05:16:02;;;;;;;0.35;0.30;;;19.90;99.90;;;;;;4399404;32;20066;-75
2023/08/15 05:18:28;;;;;;;0.30;0.30;;;20.00;99.90;;;;;;4397958;32;20416;-75
2023/08/15 05:20:53;;;;;;;0.20;0.20;;;20.00;99.90;;;;;;4397848;32;20078;-75
2023/08/15 05:23:19;;;;;;;1.33;0.75;;;20.00;99.90;;;;;;4396730;32;20079;-75
2023/08/15 05:25:46;;;;;;;0.40;0.40;;;20.10;99.90;;;;;;4398288;32;20074;-75
2023/08/15 05:28:11;;;;;;;0.90;0.52;;;20.10;99.90;;;;;;4398339;32;20120;-75
2023/08/15 05:30:37;;;;;;;0.73;0.70;;;20.10;99.90;;;;;;4398436;32;20066;-75
2023/08/15 05:33:03;;;;;;;0.30;0.30;;;20.20;99.90;;;;;;4397916;32;20070;-75
2023/08/15 05:35:29;;;;;;;0.25;0.25;;;20.20;99.90;;;;;;4397924;32;20130;-75
2023/08/15 05:37:54;;;;;;;13.82;0.93;;;20.20;99.90;;;;;;4397607;32;20083;-75
2023/08/15 05:40:21;;;;;;;0.30;0.30;;;20.20;99.90;;;;;;4398422;32;20065;-75
2023/08/15 05:42:46;;;;;;;0.20;0.20;;;20.30;99.90;;;;;;4397275;32;20082;-75
2023/08/15 05:45:12;;;;;;;0.20;0.20;;;20.40;99.90;;;;;;4397878;32;20066;-75
2023/08/15 05:47:37;;;;;;;1.02;0.77;;;20.40;99.90;;;;;;4399326;32;20117;-75
2023/08/15 05:50:03;;;;;;;0.30;0.30;;;20.40;99.90;;;;;;4397880;32;20066;-75
2023/08/15 05:52:29;;;;;;;1.05;0.82;;;20.50;99.90;;;;;;4398480;32;20066;-75
2023/08/15 05:54:55;;;;;;;0.20;0.20;;;20.60;99.90;;;;;;4397615;32;20385;-75
2023/08/15 05:57:20;;;;;;;0.30;0.30;;;20.50;99.90;;;;;;4397908;32;20160;-75
2023/08/15 05:59:46;;;;;;;0.68;0.62;;;20.60;99.90;;;;;;4398307;32;20200;-75
2023/08/15 06:02:12;;;;;;;0.68;0.55;;;20.70;99.90;;;;;;4398151;32;20428;-75
2023/08/15 06:04:38;;;;;;;0.20;0.20;;;20.80;99.90;;;;;;4398445;32;20582;-74
2023/08/15 06:07:04;;;;;;;0.37;0.37;;;20.80;99.90;;;;;;4397882;32;20090;-74
2023/08/15 06:09:29;;;;;;;0.30;0.30;;;20.80;99.90;;;;;;4397720;32;20061;-75
2023/08/15 06:11:55;;;;;;;0.35;0.30;;;20.90;99.90;;;;;;4398489;32;20062;-74
2023/08/15 06:14:20;;;;;;;0.47;0.47;;;20.90;99.90;;;;;;4397649;32;20062;-75
2023/08/15 06:16:46;;;;;;;0.47;0.47;;;20.90;99.90;;;;;;4398223;32;20409;-74
2023/08/15 06:19:12;;;;;;;0.47;0.47;;;20.90;99.90;;;;;;4398022;32;20122;-74
2023/08/15 06:21:41;;;;;;;0.43;0.43;;;20.90;99.90;;;;;;4398353;32;20412;-74
2023/08/15 06:24:09;;;;;;;0.32;0.32;;;20.90;99.90;;;;;;4397738;32;20057;-74
2023/08/15 06:26:34;;;;;;;0.30;0.30;;;20.90;99.90;;;;;;4398035;32;20129;-74
2023/08/15 06:29:00;;;;;;;0.55;0.47;;;21.00;99.90;;;;;;4397683;32;20073;-74
2023/08/15 06:31:26;;;;;;;0.40;0.40;;;21.00;99.90;;;;;;4397502;32;20070;-75
2023/08/15 06:33:51;;;;;;;31.58;1.15;;;21.10;99.90;;;;;;4398242;32;20070;-75
2023/08/15 06:36:17;;;;;;;0.70;0.65;;;21.10;99.90;;;;;;4398020;32;20066;-75
2023/08/15 06:38:42;;;;;;;0.20;0.20;;;21.20;99.90;;;;;;4397010;32;20062;-75
2023/08/15 06:41:08;;;;;;;0.30;0.30;;;21.30;99.90;;;;;;4397454;32;20132;-75
2023/08/15 06:43:33;;;;;;;0.40;0.40;;;21.20;99.90;;;;;;4398095;32;20204;-74
2023/08/15 06:45:59;;;;;;;0.40;0.35;;;21.40;99.90;;;;;;4397173;32;20487;-75
2023/08/15 06:48:25;;;;;;;0.65;0.50;;;21.40;99.90;;;;;;4397268;32;20075;-75
2023/08/15 06:50:51;;;;;;;3.78;0.88;;;21.50;99.90;;;;;;4397719;32;20070;-75
2023/08/15 06:53:16;;;;;;;0.35;0.35;;;21.60;99.90;;;;;;4397006;32;20066;-75
2023/08/15 06:55:41;;;;;;;0.47;0.47;;;21.50;99.90;;;;;;4396890;32;20077;-75
2023/08/15 06:58:07;;;;;;;0.30;0.30;;;21.60;99.90;;;;;;4396850;32;20074;-75
2023/08/15 07:00:33;;;;;;;3.92;0.85;;;21.70;99.90;;;;;;4397199;32;20099;-73
2023/08/15 07:02:58;;;;;;;0.37;0.37;;;21.80;99.90;;;;;;4396976;32;20062;-75
2023/08/15 07:05:23;;;;;;;1.98;0.45;;;21.90;99.90;;;;;;4396357;32;20445;-77
2023/08/15 07:07:49;;;;;;;0.40;0.40;;;21.90;99.90;;;;;;4398318;32;20073;-77
2023/08/15 07:10:14;;;;;;;0.20;0.20;;;22.00;99.90;;;;;;4397879;32;20086;-77
2023/08/15 07:12:40;;;;;;;0.60;0.60;;;22.10;99.90;;;;;;4396572;32;20066;-77
2023/08/15 07:15:06;;;;;;;0.30;0.30;;;22.20;99.90;;;;;;4397373;32;20070;-77
2023/08/15 07:17:31;;;;;;;0.20;0.20;;;22.20;99.90;;;;;;4397346;32;20073;-75
2023/08/15 07:19:57;;;;;;;0.30;0.30;;;22.20;99.90;;;;;;4397440;32;20117;-77
2023/08/15 07:22:23;;;;;;;0.37;0.37;;;22.20;99.90;;;;;;4396792;32;20066;-76
2023/08/15 07:24:48;;;;;;;0.30;0.30;;;22.30;99.90;;;;;;4397376;32;20081;-76
2023/08/15 07:27:14;;;;;;;0.40;0.40;;;22.40;99.90;;;;;;4397022;32;20122;-77
2023/08/15 07:29:39;;;;;;;0.50;0.30;;;22.50;99.90;;;;;;4396620;32;20822;-76
2023/08/15 07:32:06;;;;;;;0.50;0.50;;;22.60;99.90;;;;;;4396838;32;20067;-77
2023/08/15 07:34:32;;;;;;;0.30;0.30;;;22.60;99.90;;;;;;4396415;32;20086;-76
2023/08/15 07:36:57;;;;;;;2.83;1.50;;;22.80;99.90;;;;;;4396546;32;20086;-76
2023/08/15 07:39:23;;;;;;;0.80;0.73;;;22.80;99.90;;;;;;4396387;32;20086;-76
2023/08/15 07:41:49;;;;;;;0.30;0.30;;;22.90;99.90;;;;;;4397865;32;20066;-76
2023/08/15 07:44:14;;;;;;;0.22;0.22;;;23.00;99.90;;;;;;4397611;32;20074;-75
2023/08/15 07:46:40;;;;;;;0.88;0.37;;;23.00;99.90;;;;;;4397662;32;20061;-76
2023/08/15 07:49:05;;;;;;;0.52;0.45;;;23.20;99.90;;;;;;4396817;32;20074;-73
2023/08/15 07:51:31;;;;;;;0.20;0.20;;;23.30;99.90;;;;;;4396719;32;20074;-74
2023/08/15 07:53:57;;;;;;;0.60;0.60;;;23.30;99.90;;;;;;4397066;32;20079;-74
2023/08/15 07:56:22;;;;;;;0.57;0.57;;;23.40;99.90;;;;;;4396917;32;20092;-76
2023/08/15 07:58:48;;;;;;;0.30;0.30;;;23.50;99.90;;;;;;4396844;32;20129;-76
2023/08/15 08:01:13;;;;;;;0.52;0.52;;;23.70;99.90;;;;;;4396355;32;20082;-76
2023/08/15 08:03:42;;;;;;;3.28;1.05;;;23.80;99.90;;;;;;4396878;32;20074;-76
2023/08/15 08:06:08;;;;;;;0.60;0.47;;;23.90;99.90;;;;;;4398798;32;20537;-76
2023/08/15 08:08:34;;;;;;;0.50;0.25;;;23.90;99.90;;;;;;4399455;32;20070;-76
2023/08/15 08:10:59;;;;;;;0.95;0.68;;;24.00;99.90;;;;;;4399484;32;20070;-76
2023/08/15 08:13:25;;;;;;;0.30;0.30;;;24.10;99.90;;;;;;4399500;32;20062;-77
2023/08/15 08:15:50;;;;;;;0.30;0.30;;;24.30;99.90;;;;;;4399268;32;20076;-76
2023/08/15 08:18:16;;;;;;;0.30;0.30;;;24.40;99.90;;;;;;4398874;32;20079;-76
2023/08/15 08:20:41;;;;;;;0.13;0.13;;;24.50;99.90;;;;;;4399048;32;20426;-76
2023/08/15 08:23:08;;;;;;;10.43;2.45;;;24.60;99.90;;;;;;4399138;32;20069;-76
2023/08/15 08:25:33;;;;;;;0.47;0.47;;;24.70;99.90;;;;;;4399782;32;20117;-74
2023/08/15 08:27:58;;;;;;;1.15;0.75;;;24.80;99.90;;;;;;4399961;32;20095;-77
2023/08/15 08:30:25;;;;;;;0.45;0.28;;;24.90;99.90;;;;;;4399131;32;20506;-76
2023/08/15 08:32:51;;;;;;;0.55;0.30;;;24.90;99.90;;;;;;4398564;32;20082;-77
2023/08/15 08:35:17;;;;;;;0.20;0.20;;;24.90;99.90;;;;;;4398602;32;20081;-76
2023/08/15 08:37:45;;;;;;;0.32;0.32;;;24.90;99.90;;;;;;4399026;32;20074;-76
2023/08/15 08:40:12;;;;;;;0.37;0.32;;;25.00;99.90;;;;;;4399719;32;20066;-76
2023/08/15 08:42:40;;;;;;;0.20;0.20;;;25.10;99.90;;;;;;4389871;32;20201;-76
2023/08/15 08:45:08;;;;;;;0.20;0.20;;;25.10;99.90;;;;;;4383821;32;20067;-76
2023/08/15 08:47:34;;;;;;;0.47;0.47;;;25.20;99.90;;;;;;4388099;32;20062;-75
2023/08/15 08:50:00;;;;;;;0.20;0.20;;;25.30;99.90;;;;;;4398903;32;20075;-76
2023/08/15 08:52:27;;;;;;;0.50;0.50;;;25.40;99.90;;;;;;4398796;32;20062;-76
2023/08/15 08:54:53;;;;;;;1.00;0.62;;;25.40;99.90;;;;;;4399069;32;20117;-76
2023/08/15 08:57:20;;;;;;;0.65;0.40;;;25.50;99.90;;;;;;4398443;32;20070;-76
2023/08/15 08:59:46;;;;;;;0.25;0.25;;;25.50;99.90;;;;;;4398924;32;20427;-75
2023/08/15 09:02:16;;;;;;;1.65;0.82;;;25.70;99.90;;;;;;4397977;32;20130;-75
2023/08/15 09:04:42;;;;;;;0.45;0.45;;;25.70;99.90;;;;;;4396674;32;20062;-74
2023/08/15 09:07:07;;;;;;;0.20;0.20;;;25.70;99.90;;;;;;4397266;32;20062;-75
2023/08/15 09:09:33;;;;;;;0.28;0.25;;;25.80;99.90;;;;;;4398592;32;20574;-75
2023/08/15 09:11:58;;;;;;;0.30;0.30;;;26.00;99.90;;;;;;4397576;32;20075;-75
2023/08/15 09:14:24;;;;;;;1.30;0.73;;;26.20;99.90;;;;;;4398015;32;20066;-75
2023/08/15 09:16:49;;;;;;;0.20;0.20;;;26.30;99.90;;;;;;4398241;32;20066;-75
2023/08/15 09:19:15;;;;;;;1.90;1.08;;;26.40;99.90;;;;;;4398742;32;20922;-75
2023/08/15 09:21:42;;;;;;;0.20;0.20;;;26.50;99.90;;;;;;4398639;32;20097;-75
2023/08/15 09:24:08;;;;;;;0.22;0.22;;;26.40;99.90;;;;;;4398654;32;20079;-75
2023/08/15 09:26:35;;;;;;;0.40;0.40;;;26.30;99.90;;;;;;4398349;32;20424;-75
2023/08/15 09:29:03;;;;;;;0.37;0.37;;;26.40;99.90;;;;;;4399897;32;20302;-75
2023/08/15 09:31:28;;;;;;;0.22;0.22;;;26.40;99.90;;;;;;4398726;32;20090;-75
2023/08/15 09:33:54;;;;;;;0.32;0.32;;;26.50;99.90;;;;;;4398389;32;20065;-75
2023/08/15 09:36:23;;;;;;;0.40;0.40;;;26.60;99.90;;;;;;4398704;32;20123;-75
2023/08/15 09:38:51;;;;;;;0.08;0.08;;;26.90;99.90;;;;;;4399940;32;20061;-75
2023/08/15 09:41:17;;;;;;;4.85;1.27;;;26.90;99.90;;;;;;4399239;32;20178;-75
2023/08/15 09:43:52;;;;;;;0.40;0.40;;;27.00;99.90;;;;;;4399206;32;20078;-75
2023/08/15 09:46:18;;;;;;;0.20;0.20;;;26.90;99.90;;;;;;4399690;32;20410;-75
2023/08/15 09:48:47;;;;;;;0.30;0.30;;;26.90;99.90;;;;;;4398907;32;20058;-75
2023/08/15 09:51:16;;;;;;;0.55;0.45;;;27.00;99.90;;;;;;4398877;32;20065;-74
2023/08/15 09:53:43;;;;;;;0.30;0.30;;;26.90;99.90;;;;;;4399028;32;20121;-75
2023/08/15 09:56:10;;;;;;;0.32;0.30;;;26.90;99.90;;;;;;4399347;32;20078;-75
2023/08/15 09:58:37;;;;;;;0.25;0.20;;;26.80;99.90;;;;;;4399214;32;20133;-75
2023/08/15 10:01:04;;;;;;;0.52;0.50;;;26.90;99.90;;;;;;4398915;32;20069;-75
2023/08/15 10:03:35;;;;;;;2.92;0.88;;;26.80;99.90;;;;;;4398002;32;20086;-75
2023/08/15 10:06:02;;;;;;;5.37;1.27;;;26.80;99.90;;;;;;4398362;32;20194;-75
2023/08/15 10:08:28;;;;;;;0.45;0.45;;;26.70;99.90;;;;;;4399056;32;20503;-75
2023/08/15 10:10:58;;;;;;;0.70;0.52;;;26.70;99.90;;;;;;4398929;32;20070;-75
2023/08/15 10:13:28;;;;;;;0.28;0.28;;;26.60;99.90;;;;;;4398124;32;20062;-75
2023/08/15 10:15:54;;;;;;;;;;;26.70;99.90;;;;;;4398862;32;20085;-75
2023/08/15 10:18:19;;;;;;;0.47;0.47;;;26.60;99.90;;;;;;4398302;32;20036;-75
2023/08/15 10:20:51;;;;;;;3.70;0.35;;;26.60;99.90;;;;;;4398914;32;20062;-75
2023/08/15 10:23:39;;;;;;;0.30;0.30;;;26.60;99.90;;;;;;4398435;32;20058;-75
2023/08/15 10:26:05;;;;;;;0.95;0.82;;;26.60;99.90;;;;;;4398463;32;20090;-74
2023/08/15 10:28:34;;;;;;;1.35;0.65;;;26.60;99.90;;;;;;4397946;32;20058;-75
2023/08/15 10:30:59;;;;;;;3.28;1.20;;;26.40;99.90;;;;;;4398714;32;20412;-75
2023/08/15 10:33:28;;;;;;;4.07;0.98;;;26.40;99.90;;;;;;4399071;32;20082;-75
2023/08/15 10:35:56;;;;;;;2.33;0.32;;;26.30;99.90;;;;;;4398964;32;20070;-75
2023/08/15 10:38:26;;;;;;;0.30;0.30;;;26.30;99.90;;;;;;4398363;32;20065;-75
2023/08/15 10:41:02;;;;;;;0.30;0.30;;;26.20;99.90;;;;;;4396599;32;20074;-75
2023/08/15 10:43:29;;;;;;;0.85;0.60;;;26.30;99.90;;;;;;4396891;32;20090;-75
2023/08/15 10:45:57;;;;;;;1.55;0.65;;;26.30;99.90;;;;;;4397957;32;20514;-75
2023/08/15 10:48:51;;;;;;;0.10;0.10;;;26.40;99.90;;;;;;4397758;32;20063;-75
2023/08/15 10:51:18;;;;;;;0.20;0.20;;;26.60;99.90;;;;;;4388189;32;20498;-75
2023/08/15 10:53:47;;;;;;;0.30;0.30;;;27.20;99.90;;;;;;4398141;32;20169;-75
2023/08/15 10:56:16;;;;;;;0.52;0.52;;;27.70;99.90;;;;;;4398822;32;20572;-75
2023/08/15 10:58:42;;;;;;;4.82;1.48;;;28.10;99.90;;;;;;4398997;32;20058;-75
2023/08/15 11:01:07;;;;;;;0.55;0.40;;;28.60;99.90;;;;;;4399466;32;20121;-75
2023/08/15 11:03:34;;;;;;;0.20;0.20;;;28.90;99.90;;;;;;4398289;32;20135;-75
2023/08/15 11:06:08;;;;;;;0.40;0.30;;;29.00;99.90;;;;;;4398884;32;20070;-75
2023/08/15 11:08:40;;;;;;;0.75;0.55;;;29.20;99.90;;;;;;4398833;32;20117;-75
2023/08/15 11:11:05;;;;;;;0.30;0.30;;;29.30;99.90;;;;;;4400376;32;20076;-74
2023/08/15 11:13:36;;;;;;;0.25;0.25;;;29.50;99.90;;;;;;4392001;32;20063;-74
2023/08/15 11:16:02;;;;;;;0.55;0.40;;;29.60;99.90;;;;;;4385632;32;20075;-74
2023/08/15 11:18:27;;;;;;;0.40;0.40;;;30.00;99.90;;;;;;4384600;32;20451;-74
2023/08/15 11:20:53;;;;;;;0.20;0.20;;;30.40;99.90;;;;;;4384498;32;20098;-75
2023/08/15 11:23:20;;;;;;;1.12;0.93;;;30.40;99.90;;;;;;4392330;32;20077;-75
2023/08/15 11:25:46;;;;;;;0.43;0.30;;;30.50;99.90;;;;;;4400335;32;20609;-75
2023/08/15 11:28:11;;;;;;;0.20;0.20;;;30.70;99.90;;;;;;4399128;32;20074;-75
2023/08/15 11:30:37;;;;;;;0.73;0.57;;;31.00;99.90;;;;;;4399099;32;20087;-75
2023/08/15 11:33:03;;;;;;;1.23;0.77;;;31.20;99.90;;;;;;4398294;32;20078;-75
2023/08/15 11:35:28;;;;;;;0.70;0.68;;;31.40;99.90;;;;;;4398628;32;20424;-75
2023/08/15 11:37:54;;;;;;;0.40;0.40;;;31.70;99.90;;;;;;4399067;32;20126;-75
2023/08/15 11:40:19;;;;;;;0.17;0.17;;;31.70;99.90;;;;;;4400548;32;20066;-75
2023/08/15 11:42:46;;;;;;;0.30;0.30;;;31.80;99.90;;;;;;4398192;32;20078;-75
2023/08/15 11:45:21;;;;;;;0.20;0.20;;;32.30;99.90;;;;;;4386583;32;20408;-73
2023/08/15 11:47:56;;;;;;;0.60;0.60;;;32.60;99.90;;;;;;4384184;32;89325;-74
2023/08/15 11:50:26;;;;;;;0.40;0.40;;;32.50;99.90;;;;;;4386675;32;20055;-75
2023/08/15 11:52:51;;;;;;;0.37;0.37;;;32.60;99.90;;;;;;4390446;32;20082;-74
2023/08/15 11:55:18;;;;;;;0.30;0.30;;;32.70;99.90;;;;;;4405692;32;20059;-75
2023/08/15 11:57:43;;;;;;;0.20;0.20;;;32.80;99.90;;;;;;4403892;32;20086;-75
2023/08/15 12:00:11;;;;;;;0.45;0.45;;;32.90;99.90;;;;;;4402973;32;20070;-75
2023/08/15 12:02:41;;;;;;;0.80;0.75;;;33.20;99.90;;;;;;4404144;32;20126;-75
2023/08/15 12:05:09;;;;;;;0.45;0.43;;;33.60;99.90;;;;;;4405266;32;20058;-73
2023/08/15 12:07:34;;;;;;;0.65;0.37;;;33.80;99.90;;;;;;4400348;32;20066;-73
2023/08/15 12:10:04;;;;;;;0.20;0.20;;;33.80;99.90;;;;;;4400633;32;20078;-73
2023/08/15 12:12:35;;;;;;;;;;;34.00;99.90;;;;;;4402087;32;20486;-73
2023/08/15 12:15:00;;;;;;;0.25;0.25;;;34.10;99.90;;;;;;4401704;32;20354;-73
2023/08/15 12:17:27;;;;;;;1.75;0.75;;;34.40;99.90;;;;;;4402866;32;20050;-74
2023/08/15 12:19:52;;;;;;;0.77;0.35;;;34.50;99.90;;;;;;4403471;32;20058;-73
2023/08/15 12:22:18;;;;;;;0.28;0.28;;;34.60;99.90;;;;;;4404101;32;20082;-73
2023/08/15 12:24:43;;;;;;;0.55;0.52;;;34.50;99.90;;;;;;4403943;32;20077;-73
2023/08/15 12:27:09;;;;;;;0.28;0.28;;;34.90;99.90;;;;;;4403141;32;20058;-73
2023/08/15 12:29:34;;;;;;;2.28;0.50;;;35.30;99.90;;;;;;4402130;32;20073;-73
2023/08/15 12:32:00;;;;;;;0.20;0.20;;;35.10;99.90;;;;;;4403532;32;20576;-74
2023/08/15 12:34:25;;;;;;;0.22;0.22;;;34.90;99.90;;;;;;4402403;32;20140;-74
2023/08/15 12:36:51;;;;;;;0.30;0.30;;;35.10;99.50;;;;;;4401714;32;20079;-74
2023/08/15 12:39:18;;;;;;;3.12;0.30;;;35.10;99.30;;;;;;4401653;32;20065;-74
2023/08/15 12:41:44;;;;;;;0.20;0.20;;;35.40;99.30;;;;;;4402200;32;20526;-74
2023/08/15 12:44:09;;;;;;;0.20;0.20;;;35.40;99.00;;;;;;4400758;32;20078;-74